Time;durP1;ratioP1;P1;durP2;ratioP2;P2;SDS_P1;SDS_P2;PMS_P1;PMS_P2;Temp;Humidity;BMP_temperature;BMP_pressure;BME280_temperature;BME280_humidity;BME280_pressure;Samples;Min_cycle;Max_cycle;Signal;HPM_P1;HPM_P2
2022/06/08 00:02:18;;;;;;;10.43;7.30;;;;;;;;;;4930136;29;20055;-73
2022/06/08 00:04:45;;;;;;;14.63;7.50;;;;;;;;;;4913993;29;20075;-73
2022/06/08 00:07:13;;;;;;;13.10;7.25;;;;;;;;;;4913859;29;20044;-74
2022/06/08 00:09:40;;;;;;;14.13;8.10;;;;;;;;;;4929662;29;20091;-73
2022/06/08 00:12:08;;;;;;;11.30;7.47;;;;;;;;;;4930995;29;20123;-73
2022/06/08 00:14:36;;;;;;;14.00;7.82;;;;;;;;;;4930099;29;20147;-73
2022/06/08 00:17:04;;;;;;;11.88;7.40;;;;;;;;;;4931449;29;20083;-73
2022/06/08 00:19:31;;;;;;;15.07;8.68;;;;;;;;;;4930000;29;20162;-73
2022/06/08 00:21:58;;;;;;;12.48;7.32;;;;;;;;;;4931351;29;20859;-73
2022/06/08 00:24:26;;;;;;;10.70;7.55;;;;;;;;;;4929976;29;20087;-73
2022/06/08 00:26:53;;;;;;;13.82;7.68;;;;;;;;;;4925605;29;20055;-73
2022/06/08 00:29:20;;;;;;;13.23;7.82;;;;;;;;;;4930269;29;20130;-73
2022/06/08 00:31:48;;;;;;;15.05;7.82;;;;;;;;;;4918825;29;20044;-74
2022/06/08 00:34:15;;;;;;;14.43;7.90;;;;;;;;;;4930410;29;20102;-73
2022/06/08 00:36:42;;;;;;;13.75;8.98;;;;;;;;;;4929771;29;20696;-73
2022/06/08 00:39:10;;;;;;;14.15;8.57;;;;;;;;;;4913705;29;20079;-73
2022/06/08 00:41:37;;;;;;;14.60;8.20;;;;;;;;;;4929681;29;20130;-73
2022/06/08 00:44:08;;;;;;;13.68;9.25;;;;;;;;;;4909117;29;20052;-73
2022/06/08 00:46:35;;;;;;;17.17;9.15;;;;;;;;;;4930073;29;20058;-73
2022/06/08 00:49:08;;;;;;;18.42;8.27;;;;;;;;;;4929424;29;20716;-73
2022/06/08 00:51:35;;;;;;;16.63;9.18;;;;;;;;;;4929761;29;20044;-73
2022/06/08 00:54:05;;;;;;;22.42;9.45;;;;;;;;;;4929857;29;20079;-73
2022/06/08 00:56:35;;;;;;;16.95;9.65;;;;;;;;;;4912674;29;20091;-73
2022/06/08 00:59:04;;;;;;;21.10;9.15;;;;;;;;;;4912443;29;20052;-73
2022/06/08 01:01:31;;;;;;;14.63;8.88;;;;;;;;;;4912465;29;20139;-73
2022/06/08 01:04:07;;;;;;;14.93;8.43;;;;;;;;;;4912071;29;20055;-73
2022/06/08 01:06:34;;;;;;;14.77;8.85;;;;;;;;;;4905397;29;20127;-73
2022/06/08 01:09:01;;;;;;;16.40;9.15;;;;;;;;;;4929014;29;20095;-73
2022/06/08 01:11:45;;;;;;;15.70;8.88;;;;;;;;;;4929020;29;20148;-73
2022/06/08 01:14:14;;;;;;;18.50;9.13;;;;;;;;;;4929280;29;20121;-73
2022/06/08 01:16:47;;;;;;;14.90;9.25;;;;;;;;;;4902558;29;20060;-73
2022/06/08 01:19:15;;;;;;;13.60;8.95;;;;;;;;;;4910743;29;20509;-73
2022/06/08 01:21:42;;;;;;;20.02;9.50;;;;;;;;;;4928206;29;20977;-73
2022/06/08 01:24:11;;;;;;;16.48;9.43;;;;;;;;;;4930329;29;20171;-73
2022/06/08 01:26:42;;;;;;;15.27;9.40;;;;;;;;;;4930292;29;20158;-73
2022/06/08 01:29:20;;;;;;;17.75;9.55;;;;;;;;;;4924993;29;20126;-73
2022/06/08 01:31:47;;;;;;;16.88;9.43;;;;;;;;;;4929761;29;20099;-73
2022/06/08 01:34:24;;;;;;;16.10;9.85;;;;;;;;;;4910568;29;20086;-74
2022/06/08 01:36:57;;;;;;;17.13;9.15;;;;;;;;;;4922914;29;20083;-73
2022/06/08 01:39:32;;;;;;;17.00;11.05;;;;;;;;;;4930125;29;20142;-74
2022/06/08 01:42:05;;;;;;;15.13;9.73;;;;;;;;;;4929524;29;20146;-74
2022/06/08 01:44:34;;;;;;;15.93;9.45;;;;;;;;;;4912425;29;20147;-74
2022/06/08 01:47:21;;;;;;;18.88;9.95;;;;;;;;;;4913025;29;20150;-74
2022/06/08 01:49:57;;;;;;;16.15;9.25;;;;;;;;;;4919271;29;20075;-74
2022/06/08 01:52:59;;;;;;;13.68;8.75;;;;;;;;;;4912324;29;20138;-74
2022/06/08 01:55:31;;;;;;;17.73;9.18;;;;;;;;;;4870544;29;20245;-74
2022/06/08 01:58:07;;;;;;;15.27;9.13;;;;;;;;;;4920409;29;20466;-74
2022/06/08 02:00:36;;;;;;;19.77;10.35;;;;;;;;;;4905814;29;20134;-74
2022/06/08 02:03:03;;;;;;;18.48;10.15;;;;;;;;;;4927768;29;20095;-73
2022/06/08 02:05:33;;;;;;;16.10;9.70;;;;;;;;;;4927910;29;20163;-74
2022/06/08 02:08:13;;;;;;;16.05;9.50;;;;;;;;;;4929469;29;20079;-73
2022/06/08 02:10:43;;;;;;;18.50;10.70;;;;;;;;;;4911526;29;20500;-74
2022/06/08 02:13:20;;;;;;;18.15;10.77;;;;;;;;;;4928143;29;20134;-73
2022/06/08 02:15:51;;;;;;;17.55;10.55;;;;;;;;;;4927975;29;20083;-74
2022/06/08 02:18:30;;;;;;;20.90;10.15;;;;;;;;;;4926697;29;20063;-74
2022/06/08 02:21:06;;;;;;;18.20;10.82;;;;;;;;;;4927444;29;20051;-74
2022/06/08 02:23:41;;;;;;;17.30;10.75;;;;;;;;;;4928707;29;20130;-75
2022/06/08 02:26:20;;;;;;;17.38;9.85;;;;;;;;;;4910960;29;20646;-74
2022/06/08 02:28:50;;;;;;;22.00;10.77;;;;;;;;;;4928022;29;20086;-74
2022/06/08 02:31:21;;;;;;;21.25;10.88;;;;;;;;;;4922112;29;20082;-75
2022/06/08 02:36:50;;;;;;;17.25;11.18;;;;;;;;;;4926810;29;20054;-74
2022/06/08 02:39:31;;;;;;;22.17;12.43;;;;;;;;;;4911530;29;20142;-74
2022/06/08 02:42:11;;;;;;;21.48;10.57;;;;;;;;;;4927291;29;20162;-74
2022/06/08 02:44:39;;;;;;;20.58;11.60;;;;;;;;;;4927576;29;20059;-74
2022/06/08 02:47:29;;;;;;;22.98;10.73;;;;;;;;;;4910068;29;20657;-74
2022/06/08 02:50:00;;;;;;;20.35;11.27;;;;;;;;;;4928296;29;20158;-74
2022/06/08 02:52:29;;;;;;;17.55;11.50;;;;;;;;;;4908236;29;20052;-74
2022/06/08 02:54:56;;;;;;;22.63;12.38;;;;;;;;;;4927409;29;20130;-74
2022/06/08 02:57:42;;;;;;;24.50;11.77;;;;;;;;;;4920696;29;20060;-74
2022/06/08 03:00:10;;;;;;;19.80;11.75;;;;;;;;;;4922382;29;20063;-74
2022/06/08 03:02:42;;;;;;;22.38;11.73;;;;;;;;;;4905026;29;20817;-75
2022/06/08 03:05:09;;;;;;;22.45;10.90;;;;;;;;;;4905073;29;20155;-74
2022/06/08 03:07:39;;;;;;;19.95;10.80;;;;;;;;;;4908538;29;20094;-74
2022/06/08 03:10:08;;;;;;;23.33;11.25;;;;;;;;;;4926498;29;20783;-74
2022/06/08 03:12:37;;;;;;;19.25;11.40;;;;;;;;;;4923431;29;20139;-74
2022/06/08 03:15:06;;;;;;;19.52;11.27;;;;;;;;;;4923450;29;20142;-74
2022/06/08 03:17:34;;;;;;;18.83;11.70;;;;;;;;;;4908454;29;20481;-75
2022/06/08 03:20:04;;;;;;;19.17;11.00;;;;;;;;;;4921565;29;20143;-74
2022/06/08 03:22:31;;;;;;;17.15;10.35;;;;;;;;;;4908746;29;20103;-74
2022/06/08 03:24:58;;;;;;;24.98;11.80;;;;;;;;;;4922503;29;20141;-74
2022/06/08 03:27:26;;;;;;;23.55;11.98;;;;;;;;;;4920969;29;20537;-75
2022/06/08 03:29:53;;;;;;;19.70;11.27;;;;;;;;;;4921927;29;20135;-74
2022/06/08 03:32:25;;;;;;;22.67;12.13;;;;;;;;;;4925024;29;20535;-74
2022/06/08 03:34:52;;;;;;;24.88;11.55;;;;;;;;;;4917242;29;20059;-74
2022/06/08 03:37:19;;;;;;;19.17;11.13;;;;;;;;;;4923119;29;20142;-74
2022/06/08 03:39:47;;;;;;;23.80;12.20;;;;;;;;;;4920303;29;20047;-74
2022/06/08 03:42:14;;;;;;;23.20;11.07;;;;;;;;;;4903472;29;20055;-74
2022/06/08 03:44:41;;;;;;;18.23;11.15;;;;;;;;;;4923848;29;20087;-74
2022/06/08 03:47:10;;;;;;;26.33;12.82;;;;;;;;;;4905329;29;20579;-74
2022/06/08 03:49:37;;;;;;;28.08;11.73;;;;;;;;;;4909912;29;20083;-75
2022/06/08 03:52:07;;;;;;;30.20;11.98;;;;;;;;;;4920493;29;20052;-75
2022/06/08 03:54:37;;;;;;;20.73;10.88;;;;;;;;;;4919429;29;20568;-74
2022/06/08 03:57:05;;;;;;;22.48;10.65;;;;;;;;;;4910015;29;20142;-75
2022/06/08 03:59:33;;;;;;;22.15;12.73;;;;;;;;;;4921756;29;20175;-74
2022/06/08 04:02:01;;;;;;;24.13;11.85;;;;;;;;;;4923801;29;20167;-74
2022/06/08 04:04:28;;;;;;;22.67;11.75;;;;;;;;;;4924351;29;20056;-73
2022/06/08 04:06:55;;;;;;;21.42;12.27;;;;;;;;;;4904774;29;20183;-74
2022/06/08 04:09:23;;;;;;;22.50;12.32;;;;;;;;;;4920625;29;20055;-73
2022/06/08 04:11:50;;;;;;;21.33;10.77;;;;;;;;;;4921181;29;20054;-74
2022/06/08 04:14:17;;;;;;;19.05;11.20;;;;;;;;;;4909101;29;20156;-74
2022/06/08 04:16:45;;;;;;;24.02;12.27;;;;;;;;;;4911048;29;20134;-76
2022/06/08 04:19:13;;;;;;;22.90;11.88;;;;;;;;;;4919067;29;20524;-75
2022/06/08 04:21:41;;;;;;;26.42;11.07;;;;;;;;;;4917240;29;20075;-74
2022/06/08 04:24:10;;;;;;;26.45;10.55;;;;;;;;;;4902569;29;20151;-74
2022/06/08 04:26:37;;;;;;;19.20;10.98;;;;;;;;;;4918411;29;20079;-74
2022/06/08 04:29:05;;;;;;;23.88;10.05;;;;;;;;;;4897049;29;20214;-74
2022/06/08 04:31:34;;;;;;;22.75;11.02;;;;;;;;;;4918293;29;20142;-74
2022/06/08 04:34:03;;;;;;;18.30;10.38;;;;;;;;;;4930819;29;20048;-74
2022/06/08 04:36:31;;;;;;;20.55;11.52;;;;;;;;;;4923179;29;20055;-74
2022/06/08 04:38:59;;;;;;;21.60;12.13;;;;;;;;;;4903055;29;20054;-74
2022/06/08 04:41:27;;;;;;;23.35;12.30;;;;;;;;;;4920224;29;20162;-76
2022/06/08 04:43:55;;;;;;;19.05;11.85;;;;;;;;;;4920206;29;20075;-76
2022/06/08 04:46:23;;;;;;;27.50;12.80;;;;;;;;;;4925585;29;20079;-73
2022/06/08 04:48:51;;;;;;;32.72;12.60;;;;;;;;;;4920443;29;20063;-74
2022/06/08 04:51:18;;;;;;;26.00;11.13;;;;;;;;;;4900930;29;20048;-74
2022/06/08 04:53:47;;;;;;;23.67;11.35;;;;;;;;;;4919920;29;20142;-73
2022/06/08 04:56:16;;;;;;;17.85;10.50;;;;;;;;;;4920294;29;20062;-73
2022/06/08 04:58:43;;;;;;;24.65;10.82;;;;;;;;;;4918873;29;20066;-73
2022/06/08 05:01:11;;;;;;;21.60;10.80;;;;;;;;;;4920386;29;20154;-74
2022/06/08 05:03:38;;;;;;;16.45;9.48;;;;;;;;;;4926454;29;21597;-74
2022/06/08 05:06:05;;;;;;;24.05;9.85;;;;;;;;;;4918324;29;20333;-73
2022/06/08 05:08:34;;;;;;;20.15;10.23;;;;;;;;;;4916236;29;20720;-74
2022/06/08 05:11:04;;;;;;;16.25;9.52;;;;;;;;;;4915994;29;20058;-73
2022/06/08 05:13:32;;;;;;;19.20;9.27;;;;;;;;;;4915352;29;20044;-74
2022/06/08 05:16:00;;;;;;;16.38;8.07;;;;;;;;;;4920720;29;20087;-74
2022/06/08 05:18:27;;;;;;;25.83;9.57;;;;;;;;;;4902782;29;20055;-74
2022/06/08 05:20:55;;;;;;;16.25;8.43;;;;;;;;;;4917057;29;20079;-74
2022/06/08 05:23:25;;;;;;;24.52;10.02;;;;;;;;;;4897632;29;20141;-74
2022/06/08 05:25:53;;;;;;;20.90;7.75;;;;;;;;;;4921901;29;20405;-75
2022/06/08 05:28:21;;;;;;;11.48;7.40;;;;;;;;;;4919768;29;20512;-75
2022/06/08 05:30:49;;;;;;;11.48;7.35;;;;;;;;;;4913508;29;20753;-75
2022/06/08 05:33:17;;;;;;;12.50;7.25;;;;;;;;;;4922852;29;20139;-74
2022/06/08 05:35:44;;;;;;;19.25;7.47;;;;;;;;;;4925076;29;20048;-74
2022/06/08 05:38:12;;;;;;;15.38;7.50;;;;;;;;;;4925741;29;20151;-74
2022/06/08 05:40:39;;;;;;;15.73;7.00;;;;;;;;;;4923790;29;20197;-74
2022/06/08 05:43:08;;;;;;;12.93;5.85;;;;;;;;;;4920806;29;20081;-75
2022/06/08 05:45:36;;;;;;;11.13;5.30;;;;;;;;;;4920752;29;20576;-75
2022/06/08 05:48:04;;;;;;;14.75;6.15;;;;;;;;;;4922433;29;20051;-74
2022/06/08 05:50:32;;;;;;;11.93;5.60;;;;;;;;;;4926807;29;20048;-75
2022/06/08 05:52:59;;;;;;;9.90;5.10;;;;;;;;;;4925341;29;20159;-75
2022/06/08 05:55:27;;;;;;;12.63;5.68;;;;;;;;;;4929963;29;20086;-75
2022/06/08 05:57:54;;;;;;;11.55;4.63;;;;;;;;;;4929471;29;20429;-75
2022/06/08 06:00:23;;;;;;;7.07;4.38;;;;;;;;;;4928637;29;20079;-75
2022/06/08 06:02:51;;;;;;;12.60;4.60;;;;;;;;;;4924392;29;20143;-74
2022/06/08 06:05:19;;;;;;;9.43;4.53;;;;;;;;;;4903139;29;20565;-75
2022/06/08 06:07:47;;;;;;;9.80;4.57;;;;;;;;;;4920122;29;20058;-74
2022/06/08 06:10:15;;;;;;;11.15;4.00;;;;;;;;;;4917358;29;20166;-74
2022/06/08 06:12:42;;;;;;;13.40;4.32;;;;;;;;;;4920499;29;20167;-74
2022/06/08 06:15:11;;;;;;;11.07;3.90;;;;;;;;;;4929087;29;20142;-74
2022/06/08 06:17:38;;;;;;;11.10;3.90;;;;;;;;;;4929045;29;20530;-74
2022/06/08 06:20:06;;;;;;;5.72;3.53;;;;;;;;;;4924660;29;20083;-74
2022/06/08 06:22:35;;;;;;;8.77;4.07;;;;;;;;;;4908945;29;20146;-74
2022/06/08 06:25:03;;;;;;;11.02;3.80;;;;;;;;;;4925135;29;20059;-75
2022/06/08 06:27:30;;;;;;;4.45;3.15;;;;;;;;;;4921309;29;20178;-74
2022/06/08 06:29:58;;;;;;;11.07;3.63;;;;;;;;;;4926262;29;20052;-74
2022/06/08 06:32:27;;;;;;;9.63;3.35;;;;;;;;;;4926349;29;20052;-74
2022/06/08 06:34:55;;;;;;;8.95;3.40;;;;;;;;;;4925654;29;20139;-75
2022/06/08 06:37:23;;;;;;;7.55;4.03;;;;;;;;;;4926988;29;20142;-75
2022/06/08 06:39:51;;;;;;;5.55;3.60;;;;;;;;;;4931056;29;20087;-75
2022/06/08 06:42:19;;;;;;;6.40;3.35;;;;;;;;;;4929910;29;20689;-75
2022/06/08 06:44:47;;;;;;;15.93;4.18;;;;;;;;;;4926134;29;20071;-75
2022/06/08 06:47:14;;;;;;;8.57;3.90;;;;;;;;;;4925501;29;20071;-75
2022/06/08 06:49:42;;;;;;;9.00;3.90;;;;;;;;;;4927376;29;20086;-75
2022/06/08 06:52:13;;;;;;;11.02;3.55;;;;;;;;;;4916376;29;20056;-74
2022/06/08 06:54:41;;;;;;;11.82;4.90;;;;;;;;;;4911630;29;20075;-74
2022/06/08 06:57:08;;;;;;;9.88;4.20;;;;;;;;;;4928257;29;20075;-74
2022/06/08 06:59:35;;;;;;;10.32;4.00;;;;;;;;;;4913751;29;20134;-74
2022/06/08 07:02:03;;;;;;;6.78;3.90;;;;;;;;;;4901040;29;20158;-74
2022/06/08 07:04:30;;;;;;;6.97;4.03;;;;;;;;;;4927945;29;20142;-74
2022/06/08 07:06:57;;;;;;;6.43;3.65;;;;;;;;;;4928725;29;20405;-74
2022/06/08 07:09:25;;;;;;;9.15;4.70;;;;;;;;;;4928315;29;20047;-72
2022/06/08 07:11:52;;;;;;;10.13;4.15;;;;;;;;;;4911666;29;20453;-74
2022/06/08 07:14:20;;;;;;;9.65;4.55;;;;;;;;;;4927157;29;20134;-74
2022/06/08 07:16:47;;;;;;;11.27;4.63;;;;;;;;;;4915963;29;20134;-74
2022/06/08 07:19:15;;;;;;;8.25;4.30;;;;;;;;;;4928595;29;20075;-72
2022/06/08 07:21:43;;;;;;;9.73;3.88;;;;;;;;;;4911329;29;20485;-72
2022/06/08 07:24:20;;;;;;;8.23;4.78;;;;;;;;;;4910272;29;20606;-73
2022/06/08 07:26:48;;;;;;;10.23;4.25;;;;;;;;;;4910755;29;20137;-73
2022/06/08 07:29:15;;;;;;;7.85;4.72;;;;;;;;;;4930359;29;20094;-73
2022/06/08 07:31:43;;;;;;;10.10;4.88;;;;;;;;;;4924051;29;20135;-73
2022/06/08 07:34:12;;;;;;;6.88;3.90;;;;;;;;;;4926805;29;20424;-73
2022/06/08 07:36:39;;;;;;;8.68;4.10;;;;;;;;;;4930097;29;20059;-73
2022/06/08 07:39:06;;;;;;;10.05;5.10;;;;;;;;;;4914335;29;20059;-73
2022/06/08 07:41:34;;;;;;;11.57;4.65;;;;;;;;;;4932131;29;20143;-72
2022/06/08 07:44:01;;;;;;;11.43;4.80;;;;;;;;;;4932333;29;20167;-73
2022/06/08 07:46:29;;;;;;;10.45;4.85;;;;;;;;;;4929526;29;20671;-73
2022/06/08 07:51:43;;;;;;;9.27;5.68;;;;;;;;;;4931565;29;20123;-73
2022/06/08 07:54:10;;;;;;;14.40;5.38;;;;;;;;;;4914958;29;20122;-73
2022/06/08 07:56:38;;;;;;;15.57;5.50;;;;;;;;;;4931767;29;20048;-73
2022/06/08 07:59:05;;;;;;;10.45;5.63;;;;;;;;;;4914631;29;20146;-73
2022/06/08 08:01:32;;;;;;;10.77;5.50;;;;;;;;;;4928546;29;20495;-73
2022/06/08 08:04:01;;;;;;;8.80;4.82;;;;;;;;;;4924754;29;20508;-74
2022/06/08 08:06:28;;;;;;;9.77;4.70;;;;;;;;;;4917838;29;20056;-74
2022/06/08 08:08:55;;;;;;;10.65;5.18;;;;;;;;;;4931420;29;20123;-73
2022/06/08 08:11:26;;;;;;;12.90;6.45;;;;;;;;;;4931358;29;20059;-73
2022/06/08 08:13:54;;;;;;;7.32;4.95;;;;;;;;;;4915011;29;20158;-74
2022/06/08 08:16:21;;;;;;;11.45;5.18;;;;;;;;;;4931877;29;20143;-73
2022/06/08 08:18:49;;;;;;;13.82;6.53;;;;;;;;;;4930643;29;20684;-73
2022/06/08 08:21:16;;;;;;;18.35;7.65;;;;;;;;;;4929468;29;20051;-73
2022/06/08 08:23:44;;;;;;;11.25;6.65;;;;;;;;;;4931344;29;20064;-73
2022/06/08 08:26:11;;;;;;;10.82;5.07;;;;;;;;;;4931220;29;20095;-73
2022/06/08 08:28:38;;;;;;;12.38;5.68;;;;;;;;;;4931501;29;20098;-74
2022/06/08 08:31:05;;;;;;;11.27;5.68;;;;;;;;;;4914180;29;20147;-74
2022/06/08 08:33:36;;;;;;;10.05;6.32;;;;;;;;;;4930228;29;20776;-74
2022/06/08 08:36:03;;;;;;;13.25;5.75;;;;;;;;;;4914244;29;20602;-74
2022/06/08 08:38:31;;;;;;;13.30;5.38;;;;;;;;;;4912543;29;20763;-74
2022/06/08 08:41:00;;;;;;;13.93;6.07;;;;;;;;;;4930965;29;20083;-74
2022/06/08 08:43:31;;;;;;;8.75;5.55;;;;;;;;;;4929803;29;20091;-74
2022/06/08 08:46:08;;;;;;;11.82;6.32;;;;;;;;;;4930810;29;20456;-74
2022/06/08 08:48:50;;;;;;;10.52;5.63;;;;;;;;;;4930964;29;20488;-73
2022/06/08 08:51:19;;;;;;;10.35;5.80;;;;;;;;;;4912044;29;20520;-73
2022/06/08 08:53:55;;;;;;;12.30;6.63;;;;;;;;;;4922800;29;20063;-74
2022/06/08 08:56:31;;;;;;;12.60;7.88;;;;;;;;;;4912101;29;20169;-74
2022/06/08 08:59:00;;;;;;;10.75;6.88;;;;;;;;;;4907277;29;20135;-74
2022/06/08 09:01:29;;;;;;;11.80;6.38;;;;;;;;;;4911496;29;20130;-73
2022/06/08 09:04:06;;;;;;;11.48;6.32;;;;;;;;;;4927240;29;20079;-73
2022/06/08 09:06:34;;;;;;;12.15;6.55;;;;;;;;;;4930968;29;20063;-73
2022/06/08 09:09:03;;;;;;;13.23;6.70;;;;;;;;;;4930658;29;20098;-73
2022/06/08 09:11:36;;;;;;;14.63;6.95;;;;;;;;;;4927386;29;20143;-73
2022/06/08 09:14:16;;;;;;;10.48;7.22;;;;;;;;;;4927820;29;20052;-73
2022/06/08 09:16:48;;;;;;;10.32;7.32;;;;;;;;;;4928306;29;20055;-73
2022/06/08 09:19:22;;;;;;;15.38;6.95;;;;;;;;;;4929632;29;20055;-73
2022/06/08 09:21:51;;;;;;;13.73;7.55;;;;;;;;;;4922675;29;20440;-73
2022/06/08 09:24:22;;;;;;;14.73;8.02;;;;;;;;;;4930674;29;20059;-73
2022/06/08 09:26:54;;;;;;;10.50;7.75;;;;;;;;;;4929510;29;20043;-73
2022/06/08 09:29:25;;;;;;;15.25;9.07;;;;;;;;;;4921491;29;20131;-73
2022/06/08 09:31:52;;;;;;;14.50;8.48;;;;;;;;;;4923012;29;20138;-73
2022/06/08 09:34:26;;;;;;;14.27;8.25;;;;;;;;;;4913591;29;20056;-73
2022/06/08 09:37:12;;;;;;;14.35;8.43;;;;;;;;;;4929804;29;20139;-73
2022/06/08 09:39:40;;;;;;;24.27;7.97;;;;;;;;;;4929133;29;20055;-73
2022/06/08 09:42:28;;;;;;;16.20;7.47;;;;;;;;;;4930111;29;20056;-73
2022/06/08 09:45:18;;;;;;;13.93;8.13;;;;;;;;;;4918687;29;20107;-74
2022/06/08 09:53:46;;;;;;;21.75;8.40;;;;;;;;;;4929998;29;20536;-73
2022/06/08 09:56:19;;;;;;;14.75;7.95;;;;;;;;;;4929238;29;20066;-74
2022/06/08 09:59:05;;;;;;;13.18;7.85;;;;;;;;;;4929946;29;20158;-73
2022/06/08 10:01:39;;;;;;;11.68;7.45;;;;;;;;;;4929213;29;20086;-73
2022/06/08 10:04:07;;;;;;;14.07;7.65;;;;;;;;;;4911241;29;20084;-73
2022/06/08 10:06:49;;;;;;;16.63;8.80;;;;;;;;;;4911151;29;20139;-73
2022/06/08 10:09:16;;;;;;;12.90;9.40;;;;;;;;;;4897936;29;20188;-74
2022/06/08 10:12:02;;;;;;;12.00;7.95;;;;;;;;;;4927903;29;20083;-74
2022/06/08 10:14:39;;;;;;;13.55;8.98;;;;;;;;;;4929351;29;20532;-73
2022/06/08 10:17:12;;;;;;;10.13;7.75;;;;;;;;;;4929403;29;20075;-74
2022/06/08 10:19:54;;;;;;;16.58;8.30;;;;;;;;;;4918537;29;20056;-74
2022/06/08 10:22:23;;;;;;;10.00;6.82;;;;;;;;;;4910445;29;20151;-74
2022/06/08 10:24:50;;;;;;;10.07;7.60;;;;;;;;;;4896707;29;20047;-73
2022/06/08 10:27:21;;;;;;;19.05;7.28;;;;;;;;;;4928810;29;20465;-73
2022/06/08 10:30:11;;;;;;;10.57;7.82;;;;;;;;;;4904584;29;20590;-74
2022/06/08 10:32:44;;;;;;;8.45;6.75;;;;;;;;;;4929294;29;20623;-74
2022/06/08 10:35:21;;;;;;;10.73;6.70;;;;;;;;;;4909172;29;20078;-74
2022/06/08 10:37:49;;;;;;;11.18;6.82;;;;;;;;;;4927418;29;20150;-74
2022/06/08 10:40:25;;;;;;;12.73;5.72;;;;;;;;;;4929024;29;20051;-74
2022/06/08 10:42:53;;;;;;;9.52;5.43;;;;;;;;;;4932740;29;20091;-74
2022/06/08 10:45:23;;;;;;;10.40;5.90;;;;;;;;;;4930545;29;20607;-74
2022/06/08 10:47:53;;;;;;;7.50;5.22;;;;;;;;;;4911985;29;20055;-74
2022/06/08 10:50:40;;;;;;;19.33;8.18;;;;;;;;;;4928933;29;20098;-74
2022/06/08 10:56:34;;;;;;;6.90;4.88;;;;;;;;;;4927015;29;20054;-74
2022/06/08 10:59:04;;;;;;;7.28;4.80;;;;;;;;;;4911796;29;20055;-74
2022/06/08 11:01:48;;;;;;;7.00;4.55;;;;;;;;;;4928826;29;20106;-74
2022/06/08 11:04:31;;;;;;;21.15;5.35;;;;;;;;;;4930683;29;20465;-74
2022/06/08 11:06:58;;;;;;;6.38;4.60;;;;;;;;;;4911781;29;20474;-74
2022/06/08 11:09:35;;;;;;;7.45;4.47;;;;;;;;;;4923023;29;20104;-74
2022/06/08 11:12:04;;;;;;;9.45;4.07;;;;;;;;;;4901081;29;20528;-74
2022/06/08 11:14:35;;;;;;;11.10;5.07;;;;;;;;;;4930976;29;20192;-74
2022/06/08 11:17:05;;;;;;;11.32;5.32;;;;;;;;;;4933493;29;20126;-73
2022/06/08 11:19:34;;;;;;;9.15;4.88;;;;;;;;;;4932253;29;20521;-73
2022/06/08 11:22:04;;;;;;;9.25;5.38;;;;;;;;;;4915479;29;20564;-73
2022/06/08 11:24:47;;;;;;;10.45;5.25;;;;;;;;;;4933000;29;20147;-74
2022/06/08 11:27:46;;;;;;;9.43;5.80;;;;;;;;;;4923742;29;20086;-73
2022/06/08 11:30:23;;;;;;;5.90;4.45;;;;;;;;;;4879712;29;20446;-73
2022/06/08 11:32:51;;;;;;;6.97;4.53;;;;;;;;;;4913101;29;20063;-73
2022/06/08 11:35:21;;;;;;;9.50;5.63;;;;;;;;;;4931756;29;20130;-73
2022/06/08 11:37:48;;;;;;;7.63;6.13;;;;;;;;;;4932129;29;20178;-73
2022/06/08 11:40:25;;;;;;;13.68;5.55;;;;;;;;;;4932467;29;20063;-74
2022/06/08 11:43:07;;;;;;;9.77;5.15;;;;;;;;;;4907885;29;20094;-75
2022/06/08 11:45:39;;;;;;;10.05;5.57;;;;;;;;;;4918985;29;20060;-75
2022/06/08 11:48:12;;;;;;;16.05;6.05;;;;;;;;;;4932231;29;20056;-75
2022/06/08 11:50:48;;;;;;;16.98;8.48;;;;;;;;;;4931665;29;20560;-75
2022/06/08 11:53:17;;;;;;;15.13;7.20;;;;;;;;;;4914929;29;20134;-75
2022/06/08 11:55:54;;;;;;;22.73;6.80;;;;;;;;;;4931529;29;20134;-75
2022/06/08 11:58:24;;;;;;;8.98;5.20;;;;;;;;;;4914510;29;20146;-75
2022/06/08 12:01:00;;;;;;;7.93;5.82;;;;;;;;;;4901787;29;20130;-75
2022/06/08 12:03:40;;;;;;;7.43;5.38;;;;;;;;;;4907162;29;20083;-75
2022/06/08 12:06:17;;;;;;;12.18;6.93;;;;;;;;;;4932326;29;20113;-75
2022/06/08 12:08:47;;;;;;;10.68;4.90;;;;;;;;;;4921651;29;20087;-75
2022/06/08 12:11:19;;;;;;;9.15;6.18;;;;;;;;;;4925995;29;20044;-75
2022/06/08 12:13:52;;;;;;;8.43;5.38;;;;;;;;;;4907908;29;20056;-75
2022/06/08 12:16:20;;;;;;;8.85;5.82;;;;;;;;;;4931196;29;20059;-75
2022/06/08 12:18:56;;;;;;;10.20;5.65;;;;;;;;;;4931879;29;20047;-75
2022/06/08 12:21:29;;;;;;;9.95;5.53;;;;;;;;;;4912779;29;20138;-75
2022/06/08 12:24:20;;;;;;;9.10;5.30;;;;;;;;;;4912573;29;20048;-75
2022/06/08 12:26:47;;;;;;;6.65;5.00;;;;;;;;;;4913750;29;20135;-75
2022/06/08 12:29:26;;;;;;;8.98;6.38;;;;;;;;;;4914358;29;20067;-75
2022/06/08 12:32:00;;;;;;;8.88;5.40;;;;;;;;;;4929562;29;20083;-75
2022/06/08 12:34:41;;;;;;;9.63;6.40;;;;;;;;;;4912136;29;20442;-75
2022/06/08 12:37:26;;;;;;;8.27;5.90;;;;;;;;;;4913922;29;20083;-75
2022/06/08 12:39:53;;;;;;;;;;;;;;;;;;4924577;29;20087;-75
2022/06/08 12:42:31;;;;;;;8.88;6.15;;;;;;;;;;4930465;29;19958;-75
2022/06/08 12:45:01;;;;;;;9.95;6.40;;;;;;;;;;4931208;29;20055;-75
2022/06/08 12:47:31;;;;;;;7.80;6.10;;;;;;;;;;4913927;29;20071;-75
2022/06/08 12:50:02;;;;;;;13.98;6.75;;;;;;;;;;4921442;29;20055;-75
2022/06/08 12:52:32;;;;;;;9.63;5.80;;;;;;;;;;4930248;29;20107;-75
2022/06/08 12:55:01;;;;;;;9.38;6.10;;;;;;;;;;4931062;29;20124;-75
2022/06/08 12:57:30;;;;;;;10.52;6.00;;;;;;;;;;4930861;29;20047;-75
2022/06/08 13:00:01;;;;;;;13.93;4.85;;;;;;;;;;4912475;29;20135;-75
2022/06/08 13:02:30;;;;;;;7.45;5.40;;;;;;;;;;4913019;29;20142;-75
2022/06/08 13:04:58;;;;;;;7.68;5.43;;;;;;;;;;4930580;29;20056;-75
2022/06/08 13:07:33;;;;;;;17.13;7.38;;;;;;;;;;4928354;29;20062;-75
2022/06/08 13:10:01;;;;;;;10.18;6.70;;;;;;;;;;4911827;29;20103;-75
2022/06/08 13:12:31;;;;;;;8.15;4.65;;;;;;;;;;4930007;29;20091;-75
2022/06/08 13:14:59;;;;;;;9.32;5.57;;;;;;;;;;4929962;29;20082;-75
2022/06/08 13:17:28;;;;;;;12.07;5.45;;;;;;;;;;4908209;29;20080;-75
2022/06/08 13:19:59;;;;;;;15.00;5.97;;;;;;;;;;4925169;29;20051;-79
2022/06/08 13:22:26;;;;;;;9.40;4.65;;;;;;;;;;4918492;29;20064;-75
2022/06/08 13:24:54;;;;;;;19.67;5.50;;;;;;;;;;4918694;29;20051;-75
2022/06/08 13:27:22;;;;;;;10.35;4.90;;;;;;;;;;4917431;29;20092;-75
2022/06/08 13:29:49;;;;;;;7.00;4.88;;;;;;;;;;4901808;29;20138;-75
2022/06/08 13:32:18;;;;;;;7.15;5.07;;;;;;;;;;4924467;29;20147;-75
2022/06/08 13:34:46;;;;;;;8.07;5.43;;;;;;;;;;4929907;29;20553;-75
2022/06/08 13:37:24;;;;;;;7.22;4.95;;;;;;;;;;4928573;29;20059;-75
2022/06/08 13:39:51;;;;;;;11.10;4.65;;;;;;;;;;4917564;29;20127;-75
2022/06/08 13:42:19;;;;;;;9.57;5.05;;;;;;;;;;4930142;29;20051;-75
2022/06/08 13:44:50;;;;;;;7.30;4.75;;;;;;;;;;4930027;29;20142;-75
2022/06/08 13:47:26;;;;;;;5.82;4.88;;;;;;;;;;4929571;29;20074;-75
2022/06/08 13:49:57;;;;;;;12.30;5.00;;;;;;;;;;4929598;29;20143;-75
2022/06/08 13:52:26;;;;;;;4.30;3.90;;;;;;;;;;4929857;29;20698;-75
2022/06/08 13:54:55;;;;;;;8.23;4.50;;;;;;;;;;4928020;29;20107;-75
2022/06/08 13:57:24;;;;;;;12.70;4.18;;;;;;;;;;4928870;29;20071;-75
2022/06/08 13:59:52;;;;;;;8.88;4.80;;;;;;;;;;4894882;29;20111;-75
2022/06/08 14:02:21;;;;;;;9.30;5.38;;;;;;;;;;4909784;29;20090;-75
2022/06/08 14:04:50;;;;;;;10.73;4.53;;;;;;;;;;4930277;29;20059;-75
2022/06/08 14:13:27;;;;;;;8.45;4.85;;;;;;;;;;4912886;29;20135;-75
2022/06/08 14:15:57;;;;;;;7.28;4.07;;;;;;;;;;4910518;29;20501;-75
2022/06/08 14:18:29;;;;;;;8.32;4.07;;;;;;;;;;4910541;29;20059;-75
2022/06/08 14:20:57;;;;;;;12.55;4.13;;;;;;;;;;4919138;29;20087;-75
2022/06/08 14:23:25;;;;;;;6.32;4.07;;;;;;;;;;4912412;29;20095;-75
2022/06/08 14:25:53;;;;;;;11.10;4.65;;;;;;;;;;4910803;29;20159;-76
2022/06/08 14:28:41;;;;;;;6.75;3.90;;;;;;;;;;4910954;29;20059;-75
2022/06/08 14:31:13;;;;;;;18.20;4.05;;;;;;;;;;4895722;29;20154;-75
2022/06/08 14:33:41;;;;;;;11.77;3.55;;;;;;;;;;4926079;29;20144;-76
2022/06/08 14:36:08;;;;;;;7.45;4.10;;;;;;;;;;4928094;29;20075;-76
2022/06/08 14:38:55;;;;;;;13.23;4.50;;;;;;;;;;4928536;29;20086;-75
2022/06/08 14:41:37;;;;;;;7.97;3.90;;;;;;;;;;4911506;29;20524;-76
2022/06/08 14:44:06;;;;;;;9.65;3.63;;;;;;;;;;4929327;29;20083;-76
2022/06/08 14:46:33;;;;;;;8.68;3.63;;;;;;;;;;4927297;29;20424;-76
2022/06/08 14:49:01;;;;;;;4.57;3.60;;;;;;;;;;4929148;29;20155;-76
2022/06/08 14:51:28;;;;;;;6.57;3.33;;;;;;;;;;4928209;29;20083;-76
2022/06/08 14:53:56;;;;;;;5.97;3.55;;;;;;;;;;4928852;29;20051;-75
2022/06/08 14:56:24;;;;;;;6.05;2.90;;;;;;;;;;4928755;29;20155;-75
2022/06/08 14:58:57;;;;;;;5.53;3.20;;;;;;;;;;4911900;29;20075;-75
2022/06/08 15:01:26;;;;;;;5.13;3.47;;;;;;;;;;4927732;29;20481;-75
2022/06/08 15:03:54;;;;;;;5.75;3.60;;;;;;;;;;4919014;29;20063;-75
2022/06/08 15:06:22;;;;;;;5.65;3.10;;;;;;;;;;4928869;29;20131;-75
2022/06/08 15:08:49;;;;;;;5.38;3.38;;;;;;;;;;4911117;29;20199;-75
2022/06/08 15:14:16;;;;;;;4.18;2.80;;;;;;;;;;4928998;29;20087;-76
2022/06/08 15:16:44;;;;;;;5.88;2.95;;;;;;;;;;4911501;29;20058;-76